createdAt,value
2018-01-06T00:00:49.384Z,7.40
2018-01-06T00:03:18.519Z,7.40
2018-01-06T00:05:46.903Z,7.40
2018-01-06T00:08:15.234Z,7.40
2018-01-06T00:10:43.524Z,7.40
2018-01-06T00:13:12.608Z,7.40
2018-01-06T00:15:42.479Z,7.40
2018-01-06T00:18:10.798Z,7.40
2018-01-06T00:20:39.118Z,7.40
2018-01-06T00:23:07.443Z,7.40
2018-01-06T00:25:35.743Z,7.30
2018-01-06T00:28:04.827Z,7.30
2018-01-06T00:30:33.888Z,7.20
2018-01-06T00:33:02.989Z,7.20
2018-01-06T00:35:31.302Z,7.20
2018-01-06T00:37:59.602Z,7.10
2018-01-06T00:40:27.922Z,7.10
2018-01-06T00:42:56.226Z,7.20
2018-01-06T00:45:24.544Z,7.30
2018-01-06T00:47:52.878Z,7.30
2018-01-06T00:50:21.165Z,7.30
2018-01-06T00:52:49.462Z,7.30
2018-01-06T00:55:18.654Z,7.10
2018-01-06T00:57:46.974Z,7.10
2018-01-06T01:00:15.347Z,7.10
2018-01-06T01:02:44.417Z,7.10
2018-01-06T01:05:13.508Z,7.00
2018-01-06T01:07:42.120Z,7.10
2018-01-06T01:10:10.448Z,7.00
2018-01-06T01:12:38.755Z,7.00
2018-01-06T01:15:07.080Z,7.00
2018-01-06T01:17:35.395Z,7.10
2018-01-06T01:20:03.717Z,7.10
2018-01-06T01:22:32.796Z,7.10
2018-01-06T01:25:01.112Z,7.10
2018-01-06T01:27:29.440Z,7.10
2018-01-06T01:29:58.542Z,7.20
2018-01-06T01:32:26.889Z,7.20
2018-01-06T01:34:55.174Z,7.10
2018-01-06T01:37:25.378Z,7.00
2018-01-06T01:39:55.290Z,7.00
2018-01-06T01:42:23.612Z,6.90
2018-01-06T01:44:51.921Z,6.90
2018-01-06T01:47:20.242Z,6.90
2018-01-06T01:49:48.548Z,6.90
2018-01-06T01:52:16.834Z,6.90
2018-01-06T01:54:45.151Z,6.90
2018-01-06T01:57:13.464Z,6.90
2018-01-06T01:59:41.780Z,6.90
2018-01-06T02:02:10.860Z,6.90
2018-01-06T02:04:39.177Z,6.90
2018-01-06T02:07:08.244Z,6.90
2018-01-06T02:09:36.577Z,6.90
2018-01-06T02:12:04.888Z,6.90
2018-01-06T02:14:34.008Z,6.90
2018-01-06T02:17:02.293Z,6.90
2018-01-06T02:19:30.613Z,6.90
2018-01-06T02:21:58.945Z,6.80
2018-01-06T02:24:28.012Z,6.80
2018-01-06T02:26:56.362Z,6.80
2018-01-06T02:29:25.443Z,6.90
2018-01-06T02:31:55.275Z,7.00
2018-01-06T02:34:23.592Z,7.00
2018-01-06T02:36:51.913Z,7.10
2018-01-06T02:39:20.197Z,7.10
2018-01-06T02:41:48.515Z,7.20
2018-01-06T02:44:16.835Z,7.10
2018-01-06T02:46:45.158Z,7.20
2018-01-06T02:49:13.448Z,7.20
2018-01-06T02:51:41.794Z,7.20
2018-01-06T02:54:10.093Z,7.10
2018-01-06T02:56:38.414Z,7.10
2018-01-06T02:59:06.736Z,7.00
2018-01-06T03:01:35.794Z,7.00
2018-01-06T03:04:04.094Z,7.00
2018-01-06T03:06:32.412Z,7.00
2018-01-06T03:09:00.714Z,7.20
2018-01-06T03:11:29.032Z,7.10
2018-01-06T03:13:57.355Z,7.00
2018-01-06T03:16:25.672Z,7.00
2018-01-06T03:18:54.921Z,6.90
2018-01-06T03:21:24.325Z,6.90
2018-01-06T03:23:52.619Z,7.00
2018-01-06T03:26:20.909Z,6.90
2018-01-06T03:28:50.109Z,6.90
2018-01-06T03:31:18.422Z,6.90
2018-01-06T03:33:47.547Z,6.80
2018-01-06T03:36:15.839Z,6.70
2018-01-06T03:38:44.147Z,6.70
2018-01-06T03:41:12.424Z,6.70
2018-01-06T03:43:40.731Z,6.70
2018-01-06T03:46:09.785Z,6.60
2018-01-06T03:48:38.128Z,6.60
2018-01-06T03:51:06.439Z,6.60
2018-01-06T03:53:34.720Z,6.50
2018-01-06T03:56:03.049Z,6.50
2018-01-06T03:58:32.121Z,6.50
2018-01-06T04:01:01.243Z,6.50
2018-01-06T04:03:29.528Z,6.50
2018-01-06T04:05:57.829Z,6.50
2018-01-06T04:08:26.900Z,6.60
2018-01-06T04:10:55.199Z,6.50
2018-01-06T04:13:23.753Z,6.50
2018-01-06T04:15:52.164Z,6.50
2018-01-06T04:18:20.523Z,6.50
2018-01-06T04:20:48.837Z,6.50
2018-01-06T04:23:17.184Z,6.50
2018-01-06T04:25:45.526Z,6.60
2018-01-06T04:28:13.815Z,6.60
2018-01-06T04:30:42.097Z,6.70
2018-01-06T04:33:11.182Z,6.70
2018-01-06T04:35:39.524Z,6.70
2018-01-06T04:38:07.831Z,6.70
2018-01-06T04:40:36.118Z,6.70
2018-01-06T04:43:04.466Z,6.70
2018-01-06T04:45:32.756Z,6.70
2018-01-06T04:48:01.060Z,6.70
2018-01-06T04:50:30.164Z,6.70
2018-01-06T04:52:58.486Z,6.70
2018-01-06T04:55:26.841Z,6.70
2018-01-06T04:57:55.152Z,6.70
2018-01-06T05:00:23.475Z,6.70
2018-01-06T05:02:52.579Z,6.70
2018-01-06T05:05:20.903Z,6.70
2018-01-06T05:07:49.226Z,6.70
2018-01-06T05:10:17.553Z,6.70
2018-01-06T05:12:45.865Z,6.70
2018-01-06T05:15:14.190Z,6.70
2018-01-06T05:17:42.476Z,6.60
2018-01-06T05:20:11.726Z,6.70
2018-01-06T05:22:40.020Z,6.60
2018-01-06T05:25:08.328Z,6.70
2018-01-06T05:27:36.660Z,6.70
2018-01-06T05:30:04.950Z,6.70
2018-01-06T05:32:33.249Z,6.80
2018-01-06T05:35:02.321Z,6.70
2018-01-06T05:37:30.653Z,6.70
2018-01-06T05:39:58.966Z,6.70
2018-01-06T05:42:27.264Z,6.70
2018-01-06T05:44:55.589Z,6.70
2018-01-06T05:47:23.909Z,6.70
2018-01-06T05:49:52.240Z,6.70
2018-01-06T05:52:20.573Z,6.70
2018-01-06T05:54:48.862Z,6.70
2018-01-06T05:57:17.161Z,6.80
2018-01-06T05:59:45.510Z,6.80
2018-01-06T06:02:13.833Z,6.80
2018-01-06T06:04:43.723Z,6.80
2018-01-06T06:07:13.031Z,6.80
2018-01-06T06:09:41.344Z,6.80
2018-01-06T06:12:10.416Z,6.80
2018-01-06T06:14:38.739Z,6.80
2018-01-06T06:17:07.095Z,6.80
2018-01-06T06:19:35.413Z,6.80
2018-01-06T06:22:03.802Z,6.90
2018-01-06T06:24:32.118Z,6.90
2018-01-06T06:27:01.197Z,6.90
2018-01-06T06:29:30.415Z,6.80
2018-01-06T06:31:58.736Z,6.80
2018-01-06T06:34:27.056Z,6.80
2018-01-06T06:36:55.401Z,6.80
2018-01-06T06:39:23.711Z,6.80
2018-01-06T06:41:52.790Z,6.90
2018-01-06T06:44:21.856Z,6.90
2018-01-06T06:46:50.189Z,6.90
2018-01-06T06:49:18.474Z,6.90
2018-01-06T06:51:47.553Z,7.00
2018-01-06T06:54:16.686Z,7.00
2018-01-06T06:56:44.979Z,7.00
2018-01-06T06:59:13.303Z,7.10
2018-01-06T07:01:41.598Z,7.10
2018-01-06T07:04:09.917Z,7.20
2018-01-06T07:06:38.234Z,7.20
2018-01-06T07:09:06.523Z,7.20
2018-01-06T07:11:34.971Z,7.20
2018-01-06T07:14:03.268Z,7.30
2018-01-06T07:16:31.568Z,7.40
2018-01-06T07:18:59.877Z,7.50
2018-01-06T07:21:28.220Z,7.50
2018-01-06T07:23:56.518Z,7.50
2018-01-06T07:26:24.847Z,7.40
2018-01-06T07:28:53.169Z,7.40
2018-01-06T07:31:21.473Z,7.30
2018-01-06T07:33:49.797Z,7.30
2018-01-06T07:36:18.093Z,7.30
2018-01-06T07:38:46.545Z,7.50
2018-01-06T07:41:14.868Z,7.50
2018-01-06T07:43:43.194Z,7.40
2018-01-06T07:46:11.512Z,7.40
2018-01-06T07:48:39.830Z,7.40
2018-01-06T07:51:08.153Z,7.50
2018-01-06T07:53:36.464Z,7.50
2018-01-06T07:56:04.800Z,7.60
2018-01-06T07:58:33.127Z,7.70
2018-01-06T08:01:02.205Z,7.60
2018-01-06T08:03:30.530Z,7.60
2018-01-06T08:05:58.862Z,7.60
2018-01-06T08:08:27.238Z,7.70
2018-01-06T08:10:55.591Z,7.60
2018-01-06T08:13:23.908Z,7.60
2018-01-06T08:15:52.246Z,7.50
2018-01-06T08:18:20.574Z,7.60
2018-01-06T08:20:48.928Z,7.70
2018-01-06T08:23:17.272Z,7.70
2018-01-06T08:25:45.596Z,7.70
2018-01-06T08:28:13.890Z,7.80
2018-01-06T08:30:42.221Z,7.90
2018-01-06T08:33:11.307Z,7.80
2018-01-06T08:35:40.575Z,7.80
2018-01-06T08:38:09.357Z,7.90
2018-01-06T08:40:38.385Z,7.90
2018-01-06T08:43:06.712Z,7.80
2018-01-06T08:45:35.044Z,7.90
2018-01-06T08:48:03.352Z,7.80
2018-01-06T08:50:31.659Z,8.00
2018-01-06T08:53:00.033Z,8.00
2018-01-06T08:55:28.351Z,7.90
2018-01-06T08:57:56.642Z,8.00
2018-01-06T09:00:24.959Z,8.00
2018-01-06T09:02:53.265Z,8.10
2018-01-06T09:05:21.691Z,8.00
2018-01-06T09:07:50.004Z,8.00
2018-01-06T09:10:18.318Z,8.00
2018-01-06T09:12:46.640Z,8.00
2018-01-06T09:15:14.965Z,8.20
2018-01-06T09:17:44.072Z,8.30
2018-01-06T09:20:12.387Z,8.30
2018-01-06T09:22:40.692Z,8.30
2018-01-06T09:25:09.980Z,8.20
2018-01-06T09:27:38.614Z,8.20
2018-01-06T09:30:08.247Z,8.20
2018-01-06T09:32:36.572Z,8.20
2018-01-06T09:35:04.864Z,8.20
2018-01-06T09:37:33.203Z,8.20
2018-01-06T09:40:01.528Z,8.20
2018-01-06T09:42:29.825Z,8.20
2018-01-06T09:44:58.147Z,8.20
2018-01-06T09:47:26.501Z,8.20
2018-01-06T09:49:54.801Z,8.30
2018-01-06T09:52:23.139Z,8.40
2018-01-06T09:54:52.324Z,8.50
2018-01-06T09:57:21.386Z,8.60
2018-01-06T09:59:49.693Z,8.60
2018-01-06T10:02:18.037Z,8.60
2018-01-06T10:04:47.206Z,8.50
2018-01-06T10:07:16.262Z,8.60
2018-01-06T10:09:44.599Z,8.60
2018-01-06T10:12:13.135Z,8.70
2018-01-06T10:14:41.427Z,8.80
2018-01-06T10:17:10.481Z,8.70
2018-01-06T10:19:38.888Z,8.70
2018-01-06T10:22:08.848Z,8.70
2018-01-06T10:24:38.599Z,8.80
2018-01-06T10:27:06.896Z,8.70
2018-01-06T10:29:35.260Z,8.70
2018-01-06T10:32:04.368Z,8.70
2018-01-06T10:34:32.656Z,8.70
2018-01-06T10:37:01.168Z,8.70
2018-01-06T10:39:30.264Z,8.70
2018-01-06T10:41:59.428Z,8.60
2018-01-06T10:44:28.544Z,8.60
2018-01-06T10:46:56.855Z,8.60
2018-01-06T10:49:25.165Z,8.60
2018-01-06T10:51:53.484Z,8.60
2018-01-06T10:54:21.865Z,8.60
2018-01-06T10:56:50.175Z,8.70
2018-01-06T10:59:18.520Z,8.60
2018-01-06T11:01:53.120Z,8.60
2018-01-06T11:04:21.414Z,8.60
2018-01-06T11:06:49.733Z,8.60
2018-01-06T11:09:18.098Z,8.70
2018-01-06T11:11:46.539Z,8.70
2018-01-06T11:14:14.853Z,8.70
2018-01-06T11:16:43.152Z,8.80
2018-01-06T11:19:11.469Z,8.80
2018-01-06T11:21:40.106Z,8.80
2018-01-06T11:24:09.837Z,8.80
2018-01-06T11:26:38.505Z,8.80
2018-01-06T11:29:06.837Z,8.80
2018-01-06T11:31:35.893Z,8.80
2018-01-06T11:34:04.214Z,8.80
2018-01-06T11:36:32.502Z,8.80
2018-01-06T11:39:00.795Z,8.80
2018-01-06T11:41:29.915Z,8.80
2018-01-06T11:43:58.242Z,8.80
2018-01-06T11:46:26.574Z,8.90
2018-01-06T11:48:55.693Z,8.70
2018-01-06T11:51:24.026Z,8.60
2018-01-06T11:53:53.084Z,8.60
2018-01-06T11:56:21.413Z,8.60
2018-01-06T11:58:49.703Z,8.70
2018-01-06T12:01:17.997Z,8.70
2018-01-06T12:03:46.336Z,8.70
2018-01-06T12:06:15.407Z,8.70
2018-01-06T12:08:44.461Z,8.80
2018-01-06T12:11:12.782Z,8.70
2018-01-06T12:13:41.105Z,8.80
2018-01-06T12:16:09.974Z,8.70
2018-01-06T12:18:38.453Z,8.80
2018-01-06T12:21:06.833Z,8.80
2018-01-06T12:23:35.914Z,8.80
2018-01-06T12:26:04.233Z,8.80
2018-01-06T12:28:32.556Z,8.80
2018-01-06T12:31:00.907Z,8.80
2018-01-06T12:33:29.220Z,8.80
2018-01-06T12:35:58.277Z,8.80
2018-01-06T12:38:26.632Z,8.70
2018-01-06T12:40:54.934Z,8.70
2018-01-06T12:43:23.238Z,8.70
2018-01-06T12:45:51.569Z,8.70
2018-01-06T12:48:19.857Z,8.70
2018-01-06T12:50:48.173Z,8.80
2018-01-06T12:53:16.482Z,8.70
2018-01-06T12:55:45.596Z,8.70
2018-01-06T12:58:14.923Z,8.70
2018-01-06T13:00:43.273Z,8.70
2018-01-06T13:03:11.600Z,8.70
2018-01-06T13:05:40.677Z,8.70
2018-01-06T13:08:09.760Z,8.70
2018-01-06T13:10:38.063Z,8.70
2018-01-06T13:13:06.377Z,8.70
2018-01-06T13:15:35.409Z,8.80
2018-01-06T13:18:04.852Z,8.80
2018-01-06T13:20:34.632Z,8.70
2018-01-06T13:23:03.942Z,8.70
2018-01-06T13:25:32.275Z,8.80
2018-01-06T13:28:01.473Z,8.70
2018-01-06T13:30:29.781Z,8.70
2018-01-06T13:32:58.094Z,8.70
2018-01-06T13:35:26.422Z,8.70
2018-01-06T13:37:55.497Z,8.60
2018-01-06T13:40:23.797Z,8.60
2018-01-06T13:42:52.104Z,8.60
2018-01-06T13:45:21.246Z,8.60
2018-01-06T13:47:49.597Z,8.60
2018-01-06T13:50:17.909Z,8.60
2018-01-06T13:52:46.192Z,8.60
2018-01-06T13:55:14.536Z,8.60
2018-01-06T13:57:42.825Z,8.60
2018-01-06T14:00:11.123Z,8.50
2018-01-06T14:02:40.232Z,8.50
2018-01-06T14:05:08.594Z,8.50
2018-01-06T14:07:36.928Z,8.50
2018-01-06T14:10:05.268Z,8.50
2018-01-06T14:12:33.557Z,8.40
2018-01-06T14:15:01.993Z,8.40
2018-01-06T14:17:30.480Z,8.40
2018-01-06T14:19:58.773Z,8.40
2018-01-06T14:22:27.855Z,8.40
2018-01-06T14:24:56.947Z,8.40
2018-01-06T14:27:25.281Z,8.30
2018-01-06T14:29:53.608Z,8.40
2018-01-06T14:32:21.923Z,8.30
2018-01-06T14:34:51.003Z,8.30
2018-01-06T14:37:19.318Z,8.30
2018-01-06T14:39:47.654Z,8.30
2018-01-06T14:42:16.027Z,8.30
2018-01-06T14:44:44.385Z,8.30
2018-01-06T14:47:12.675Z,8.30
2018-01-06T14:49:41.780Z,8.20
2018-01-06T14:52:10.086Z,8.20
2018-01-06T14:54:38.386Z,8.20
2018-01-06T14:57:06.819Z,8.20
2018-01-06T14:59:35.124Z,8.10
2018-01-06T15:02:03.425Z,8.10
2018-01-06T15:04:31.758Z,8.10
2018-01-06T15:07:00.078Z,8.10
2018-01-06T15:09:28.393Z,8.10
2018-01-06T15:11:56.731Z,8.10
2018-01-06T15:14:25.040Z,8.10
2018-01-06T15:16:54.169Z,8.10
2018-01-06T15:19:22.505Z,8.10
2018-01-06T15:21:50.804Z,8.00
2018-01-06T15:24:20.293Z,8.00
2018-01-06T15:26:49.373Z,8.00
2018-01-06T15:29:18.432Z,8.00
2018-01-06T15:31:47.580Z,8.00
2018-01-06T15:34:15.890Z,7.90
2018-01-06T15:36:44.230Z,7.90
2018-01-06T15:39:12.595Z,7.90
2018-01-06T15:41:40.944Z,7.90
2018-01-06T15:44:09.325Z,7.90
2018-01-06T15:46:37.628Z,7.90
2018-01-06T15:49:05.961Z,7.90
2018-01-06T15:51:35.291Z,7.90
2018-01-06T15:54:05.194Z,7.80
2018-01-06T15:56:33.513Z,7.80
2018-01-06T15:59:01.830Z,7.80
2018-01-06T16:01:30.429Z,7.80
2018-01-06T16:03:58.739Z,7.80
2018-01-06T16:06:27.920Z,7.80
2018-01-06T16:08:56.976Z,7.70
2018-01-06T16:11:25.509Z,7.70
2018-01-06T16:13:53.957Z,7.70
2018-01-06T16:16:22.317Z,7.70
2018-01-06T16:18:50.634Z,7.70
2018-01-06T16:21:18.958Z,7.70
2018-01-06T16:23:47.271Z,7.70
2018-01-06T16:26:15.587Z,7.60
2018-01-06T16:28:43.913Z,7.60
2018-01-06T16:31:12.232Z,7.50
2018-01-06T16:33:40.540Z,7.50
2018-01-06T16:36:08.825Z,7.50
2018-01-06T16:38:37.141Z,7.40
2018-01-06T16:41:05.493Z,7.40
2018-01-06T16:43:33.856Z,7.30
2018-01-06T16:46:02.233Z,7.30
2018-01-06T16:48:30.522Z,7.30
2018-01-06T16:50:59.525Z,7.20
2018-01-06T16:53:27.862Z,7.20
2018-01-06T16:55:57.888Z,7.10
2018-01-06T16:58:26.226Z,7.10
2018-01-06T17:00:54.520Z,7.10
2018-01-06T17:03:23.613Z,7.10
2018-01-06T17:05:52.036Z,7.10
2018-01-06T17:08:20.377Z,7.10
2018-01-06T17:10:48.706Z,7.10
2018-01-06T17:13:17.021Z,7.10
2018-01-06T17:15:45.344Z,7.10
2018-01-06T17:18:13.709Z,7.10
2018-01-06T17:20:41.971Z,7.10
2018-01-06T17:23:10.298Z,7.00
2018-01-06T17:25:38.617Z,6.90
2018-01-06T17:28:06.952Z,6.90
2018-01-06T17:30:35.277Z,6.90
2018-01-06T17:33:04.396Z,6.80
2018-01-06T17:35:32.684Z,6.80
2018-01-06T17:38:00.990Z,6.80
2018-01-06T17:40:29.300Z,6.70
2018-01-06T17:42:58.549Z,6.70
2018-01-06T17:45:26.882Z,6.80
2018-01-06T17:47:55.176Z,6.70
2018-01-06T17:50:23.540Z,6.70
2018-01-06T17:52:51.843Z,6.60
2018-01-06T17:55:20.149Z,6.60
2018-01-06T17:57:48.661Z,6.60
2018-01-06T18:00:17.015Z,6.60
2018-01-06T18:02:45.359Z,6.60
2018-01-06T18:05:13.662Z,6.60
2018-01-06T18:07:42.011Z,6.50
2018-01-06T18:10:10.319Z,6.50
2018-01-06T18:12:39.384Z,6.50
2018-01-06T18:15:07.690Z,6.50
2018-01-06T18:17:36.014Z,6.50
2018-01-06T18:20:04.338Z,6.40
2018-01-06T18:22:33.395Z,6.40
2018-01-06T18:25:01.708Z,6.40
2018-01-06T18:27:30.042Z,6.40
2018-01-06T18:29:58.718Z,6.40
2018-01-06T18:32:27.328Z,6.40
2018-01-06T18:34:55.649Z,6.40
2018-01-06T18:37:23.966Z,6.40
2018-01-06T18:39:53.072Z,6.40
2018-01-06T18:42:21.389Z,6.30
2018-01-06T18:44:49.740Z,6.40
2018-01-06T18:47:18.057Z,6.40
2018-01-06T18:49:46.635Z,6.40
2018-01-06T18:52:14.923Z,6.40
2018-01-06T18:54:43.249Z,6.30
2018-01-06T18:57:11.613Z,6.40
2018-01-06T18:59:39.972Z,6.30
2018-01-06T19:02:08.256Z,6.30
2018-01-06T19:04:36.608Z,6.30
2018-01-06T19:07:04.929Z,6.40
2018-01-06T19:09:33.226Z,6.30
2018-01-06T19:12:01.560Z,6.40
2018-01-06T19:14:29.860Z,6.30
2018-01-06T19:16:58.981Z,6.30
2018-01-06T19:19:27.299Z,6.30
2018-01-06T19:21:56.368Z,6.40
2018-01-06T19:24:25.461Z,6.30
2018-01-06T19:26:53.763Z,6.30
2018-01-06T19:29:22.106Z,6.40
2018-01-06T19:31:50.436Z,6.30
2018-01-06T19:34:18.784Z,6.30
2018-01-06T19:36:47.101Z,6.30
2018-01-06T19:39:15.401Z,6.30
2018-01-06T19:41:43.734Z,6.30
2018-01-06T19:44:12.789Z,6.30
2018-01-06T19:46:41.896Z,6.30
2018-01-06T19:49:10.930Z,6.30
2018-01-06T19:51:39.414Z,6.30
2018-01-06T19:54:07.734Z,6.30
2018-01-06T19:56:36.056Z,6.30
2018-01-06T19:59:04.354Z,6.30
2018-01-06T20:01:34.417Z,6.20
2018-01-06T20:04:02.710Z,6.20
2018-01-06T20:06:31.042Z,6.20
2018-01-06T20:08:59.344Z,6.20
2018-01-06T20:11:28.420Z,6.30
2018-01-06T20:13:56.766Z,6.30
2018-01-06T20:16:25.066Z,6.30
2018-01-06T20:18:53.469Z,6.30
2018-01-06T20:21:21.790Z,6.30
2018-01-06T20:23:50.108Z,6.30
2018-01-06T20:26:18.732Z,6.30
2018-01-06T20:28:47.245Z,6.30
2018-01-06T20:31:16.489Z,6.30
2018-01-06T20:33:44.821Z,6.30
2018-01-06T20:36:13.209Z,6.30
2018-01-06T20:38:41.512Z,6.30
2018-01-06T20:41:11.340Z,6.30
2018-01-06T20:43:41.128Z,6.30
2018-01-06T20:46:10.498Z,6.20
2018-01-06T20:48:39.551Z,6.20
2018-01-06T20:51:09.221Z,6.20
2018-01-06T20:53:37.560Z,6.20
2018-01-06T20:56:05.920Z,6.30
2018-01-06T20:58:34.249Z,6.30
2018-01-06T21:01:02.552Z,6.30
2018-01-06T21:03:30.972Z,6.30
2018-01-06T21:05:59.301Z,6.30
2018-01-06T21:08:28.428Z,6.30
2018-01-06T21:10:56.738Z,6.30
2018-01-06T21:13:25.039Z,6.30
2018-01-06T21:15:53.381Z,6.30
2018-01-06T21:18:22.446Z,6.30
2018-01-06T21:20:50.768Z,6.20
2018-01-06T21:23:19.106Z,6.20
2018-01-06T21:25:50.330Z,6.30
2018-01-06T21:28:18.679Z,6.20
2018-01-06T21:30:47.050Z,6.30
2018-01-06T21:33:15.405Z,6.30
2018-01-06T21:35:44.516Z,6.30
2018-01-06T21:38:12.801Z,6.30
2018-01-06T21:40:41.103Z,6.30
2018-01-06T21:43:09.434Z,6.30
2018-01-06T21:45:37.746Z,6.30
2018-01-06T21:48:06.074Z,6.30
2018-01-06T21:50:34.393Z,6.20
2018-01-06T21:53:02.744Z,6.20
2018-01-06T21:55:31.090Z,6.20
2018-01-06T21:57:59.395Z,6.20
2018-01-06T22:00:28.472Z,6.20
2018-01-06T22:02:56.847Z,6.20
2018-01-06T22:05:25.196Z,6.20
2018-01-06T22:07:53.488Z,6.20
2018-01-06T22:10:21.837Z,6.20
2018-01-06T22:12:50.132Z,6.20
2018-01-06T22:15:18.446Z,6.20
2018-01-06T22:17:46.773Z,6.20
2018-01-06T22:20:15.075Z,6.10
2018-01-06T22:22:44.148Z,6.10
2018-01-06T22:25:12.464Z,6.10
2018-01-06T22:27:41.484Z,6.10
2018-01-06T22:30:11.546Z,6.10
2018-01-06T22:32:40.786Z,6.10
2018-01-06T22:35:09.256Z,6.10
2018-01-06T22:37:37.577Z,6.00
2018-01-06T22:40:06.689Z,6.00
2018-01-06T22:42:34.992Z,6.00
2018-01-06T22:45:04.105Z,6.10
2018-01-06T22:47:32.421Z,6.00
2018-01-06T22:50:01.545Z,6.00
2018-01-06T22:52:29.855Z,6.10
2018-01-06T22:54:58.165Z,6.00
2018-01-06T22:57:26.501Z,6.00
2018-01-06T22:59:55.589Z,6.00
2018-01-06T23:02:23.908Z,6.00
2018-01-06T23:04:52.238Z,6.00
2018-01-06T23:07:20.534Z,6.00
2018-01-06T23:09:48.839Z,6.00
2018-01-06T23:12:17.231Z,6.00
2018-01-06T23:14:45.520Z,6.00
2018-01-06T23:17:13.912Z,6.00
2018-01-06T23:19:42.245Z,6.00
2018-01-06T23:22:11.307Z,5.90
2018-01-06T23:24:39.621Z,5.90
2018-01-06T23:27:07.912Z,5.90
2018-01-06T23:29:36.245Z,5.90
2018-01-06T23:32:04.573Z,5.90
2018-01-06T23:34:32.873Z,5.90
2018-01-06T23:37:01.219Z,5.90
2018-01-06T23:39:29.533Z,5.80
2018-01-06T23:41:58.612Z,5.80
2018-01-06T23:44:27.703Z,5.80
2018-01-06T23:46:56.025Z,5.80
2018-01-06T23:49:24.338Z,5.80
2018-01-06T23:51:52.693Z,5.70
2018-01-06T23:54:21.082Z,5.70
2018-01-06T23:56:49.380Z,5.70
2018-01-06T23:59:17.726Z,5.70
